createdAt,value
2022-12-15T00:01:18.872Z,9.40
2022-12-15T00:04:01.201Z,10.25
2022-12-15T00:06:43.392Z,13.43
2022-12-15T00:09:30.827Z,12.20
2022-12-15T00:12:13.300Z,9.50
2022-12-15T00:14:55.819Z,10.10
2022-12-15T00:17:40.683Z,8.35
2022-12-15T00:20:23.806Z,9.38
2022-12-15T00:23:05.903Z,8.70
2022-12-15T00:25:48.016Z,9.50
2022-12-15T00:28:33.295Z,9.68
2022-12-15T00:31:15.774Z,9.02
2022-12-15T00:34:00.716Z,9.45
2022-12-15T00:36:42.969Z,8.60
2022-12-15T00:39:13.189Z,9.07
2022-12-15T00:41:43.962Z,9.65
2022-12-15T00:44:18.905Z,10.25
2022-12-15T00:46:56.636Z,10.60
2022-12-15T00:49:44.694Z,10.25
2022-12-15T00:52:27.695Z,8.82
2022-12-15T00:55:10.032Z,9.63
2022-12-15T00:57:55.561Z,10.63
2022-12-15T01:00:38.831Z,8.60
2022-12-15T01:03:26.768Z,9.68
2022-12-15T01:06:11.565Z,8.48
2022-12-15T01:08:53.662Z,9.73
2022-12-15T01:11:35.860Z,11.23
2022-12-15T01:14:18.070Z,11.13
2022-12-15T01:17:02.008Z,10.75
2022-12-15T01:22:16.471Z,9.35
2022-12-15T01:24:46.253Z,13.15
2022-12-15T01:27:16.554Z,10.38
2022-12-15T01:29:46.862Z,11.27
2022-12-15T01:32:16.746Z,12.30
2022-12-15T01:34:46.557Z,10.95
2022-12-15T01:37:19.204Z,12.40
2022-12-15T01:40:01.381Z,12.82
2022-12-15T01:42:31.366Z,12.50
2022-12-15T01:45:30.932Z,11.82
2022-12-15T01:48:06.018Z,11.82
2022-12-15T01:50:38.840Z,11.65
2022-12-15T01:53:12.650Z,12.30
2022-12-15T01:55:44.959Z,11.55
2022-12-15T01:58:20.131Z,9.82
2022-12-15T02:00:53.160Z,11.35
2022-12-15T02:03:23.162Z,11.23
2022-12-15T02:05:53.183Z,13.10
2022-12-15T02:08:29.491Z,11.82
2022-12-15T02:11:24.359Z,9.55
2022-12-15T02:14:02.196Z,13.35
2022-12-15T02:16:49.942Z,10.30
2022-12-15T02:19:47.649Z,9.82
2022-12-15T02:22:29.421Z,10.85
2022-12-15T02:25:23.529Z,12.48
2022-12-15T02:28:00.130Z,11.98
2022-12-15T02:30:45.053Z,12.25
2022-12-15T02:33:21.398Z,10.18
2022-12-15T02:35:57.407Z,13.35
2022-12-15T02:38:35.859Z,10.57
2022-12-15T02:41:09.130Z,12.82
2022-12-15T02:43:45.355Z,13.02
2022-12-15T02:46:28.676Z,13.00
2022-12-15T02:49:05.807Z,11.73
2022-12-15T02:51:46.557Z,13.38
2022-12-15T02:54:40.104Z,13.43
2022-12-15T02:57:15.128Z,13.05
2022-12-15T02:59:48.208Z,14.05
2022-12-15T03:02:20.885Z,12.77
2022-12-15T03:04:50.944Z,12.30
2022-12-15T03:07:20.824Z,12.48
2022-12-15T03:09:50.568Z,12.60
2022-12-15T03:12:20.174Z,13.48
2022-12-15T03:14:50.058Z,13.15
2022-12-15T03:17:23.794Z,11.68
2022-12-15T03:19:53.872Z,15.07
2022-12-15T03:22:23.908Z,10.52
2022-12-15T03:24:53.954Z,12.98
2022-12-15T03:27:31.809Z,14.15
2022-12-15T03:30:04.786Z,12.40
2022-12-15T03:32:38.815Z,11.93
2022-12-15T03:35:10.683Z,14.93
2022-12-15T03:37:40.491Z,12.82
2022-12-15T03:40:14.320Z,14.68
2022-12-15T03:42:57.435Z,12.70
2022-12-15T03:45:29.001Z,11.75
2022-12-15T03:48:03.624Z,13.65
2022-12-15T03:50:33.924Z,13.73
2022-12-15T03:53:07.999Z,14.02
2022-12-15T03:55:39.149Z,10.13
2022-12-15T03:58:09.719Z,14.65
2022-12-15T04:00:40.112Z,13.82
2022-12-15T04:03:13.240Z,11.93
2022-12-15T04:05:43.516Z,13.23
2022-12-15T04:08:14.908Z,12.13
2022-12-15T04:10:45.438Z,12.82
2022-12-15T04:13:15.177Z,11.80
2022-12-15T04:15:44.956Z,13.63
2022-12-15T04:18:17.311Z,11.15
2022-12-15T04:20:44.486Z,11.23
2022-12-15T04:23:14.411Z,12.85
2022-12-15T04:25:56.978Z,11.32
2022-12-15T04:28:39.917Z,9.55
2022-12-15T04:31:24.034Z,13.50
2022-12-15T04:34:11.212Z,10.45
2022-12-15T04:36:54.037Z,11.02
2022-12-15T04:39:36.278Z,11.00
2022-12-15T04:42:18.700Z,9.18
2022-12-15T04:45:04.741Z,11.40
2022-12-15T04:47:47.359Z,9.35
2022-12-15T04:50:32.358Z,11.30
2022-12-15T04:53:22.952Z,9.43
2022-12-15T04:56:11.425Z,11.55
2022-12-15T04:58:55.852Z,12.23
2022-12-15T05:01:38.731Z,10.40
2022-12-15T05:04:20.866Z,10.63
2022-12-15T05:07:05.748Z,10.15
2022-12-15T05:09:47.768Z,11.30
2022-12-15T05:12:29.885Z,10.68
2022-12-15T05:15:12.129Z,11.55
2022-12-15T05:17:54.683Z,12.27
2022-12-15T05:20:36.792Z,10.57
2022-12-15T05:23:21.599Z,10.73
2022-12-15T05:26:03.917Z,11.18
2022-12-15T05:28:46.537Z,13.15
2022-12-15T05:31:29.411Z,11.50
2022-12-15T05:34:05.794Z,13.23
2022-12-15T05:37:11.665Z,10.23
2022-12-15T05:39:53.367Z,9.98
2022-12-15T05:42:29.427Z,11.60
2022-12-15T05:45:02.105Z,12.43
2022-12-15T05:47:38.961Z,13.30
2022-12-15T05:50:10.117Z,11.30
2022-12-15T05:52:57.957Z,11.02
2022-12-15T05:55:54.349Z,11.02
2022-12-15T05:58:35.781Z,11.15
2022-12-15T06:01:18.583Z,12.55
2022-12-15T06:03:48.458Z,12.55
2022-12-15T06:06:18.542Z,12.50
2022-12-15T06:08:49.999Z,10.32
2022-12-15T06:11:23.915Z,14.82
2022-12-15T06:19:49.484Z,15.15
2022-12-15T06:22:19.530Z,12.77
2022-12-15T06:24:49.286Z,13.88
2022-12-15T06:27:21.761Z,13.52
2022-12-15T06:29:51.478Z,13.60
2022-12-15T06:32:21.513Z,13.18
2022-12-15T06:34:51.612Z,13.95
2022-12-15T06:37:21.421Z,15.65
2022-12-15T06:39:51.248Z,11.75
2022-12-15T06:42:23.805Z,14.02
2022-12-15T06:44:53.755Z,12.75
2022-12-15T06:47:23.796Z,14.13
2022-12-15T06:49:53.663Z,15.45
2022-12-15T06:52:23.748Z,13.15
2022-12-15T06:54:53.515Z,15.77
2022-12-15T06:57:25.965Z,14.73
2022-12-15T06:59:55.617Z,13.63
2022-12-15T07:02:29.157Z,14.85
2022-12-15T07:04:59.194Z,16.02
2022-12-15T07:07:29.472Z,15.50
2022-12-15T07:09:59.060Z,15.50
2022-12-15T07:12:32.601Z,15.63
2022-12-15T07:15:03.305Z,14.00
2022-12-15T07:17:42.442Z,14.75
2022-12-15T07:20:28.944Z,14.50
2022-12-15T07:23:08.350Z,12.73
2022-12-15T07:25:48.084Z,16.13
2022-12-15T07:28:25.889Z,17.10
2022-12-15T07:30:57.392Z,15.73
2022-12-15T07:33:27.085Z,15.30
2022-12-15T07:35:57.287Z,14.20
2022-12-15T07:38:33.994Z,15.85
2022-12-15T07:41:07.298Z,16.08
2022-12-15T07:43:43.053Z,17.88
2022-12-15T07:46:18.239Z,15.73
2022-12-15T07:48:50.412Z,15.63
2022-12-15T07:51:22.528Z,13.13
2022-12-15T07:53:53.232Z,14.70
2022-12-15T07:56:23.842Z,14.80
2022-12-15T07:58:56.449Z,14.80
2022-12-15T08:01:26.454Z,16.42
2022-12-15T08:03:56.407Z,16.40
2022-12-15T08:06:26.174Z,13.90
2022-12-15T08:08:56.162Z,16.48
2022-12-15T08:11:26.593Z,18.63
2022-12-15T08:14:03.897Z,14.70
2022-12-15T08:17:00.427Z,17.08
2022-12-15T08:19:55.685Z,15.43
2022-12-15T08:22:28.247Z,16.42
2022-12-15T08:24:58.240Z,17.50
2022-12-15T08:27:28.064Z,18.67
2022-12-15T08:30:01.088Z,17.30
2022-12-15T08:32:30.810Z,16.85
2022-12-15T08:35:00.734Z,14.57
2022-12-15T08:37:32.711Z,18.48
2022-12-15T08:40:02.577Z,17.27
2022-12-15T08:42:35.962Z,16.45
2022-12-15T08:45:10.692Z,19.98
2022-12-15T08:47:40.698Z,18.35
2022-12-15T08:50:30.922Z,15.57
2022-12-15T08:53:31.924Z,17.17
2022-12-15T08:56:06.454Z,19.20
2022-12-15T08:58:36.694Z,19.55
2022-12-15T09:01:24.211Z,20.75
2022-12-15T09:03:58.714Z,18.80
2022-12-15T09:06:35.522Z,20.02
2022-12-15T09:09:09.280Z,18.02
2022-12-15T09:11:40.202Z,18.73
2022-12-15T09:14:11.160Z,20.20
2022-12-15T09:16:43.973Z,18.98
2022-12-15T09:19:13.940Z,20.33
2022-12-15T09:21:45.275Z,19.45
2022-12-15T09:24:25.836Z,18.15
2022-12-15T09:26:56.579Z,20.35
2022-12-15T09:29:26.374Z,20.55
2022-12-15T09:31:58.859Z,18.50
2022-12-15T09:34:28.815Z,17.70
2022-12-15T09:36:58.911Z,19.27
2022-12-15T09:39:32.640Z,18.73
2022-12-15T09:42:11.410Z,18.40
2022-12-15T09:44:49.162Z,18.30
2022-12-15T09:47:52.890Z,19.65
2022-12-15T09:50:27.685Z,16.88
2022-12-15T09:55:36.617Z,17.63
2022-12-15T09:58:11.396Z,17.42
2022-12-15T10:00:44.735Z,18.02
2022-12-15T10:03:40.976Z,19.73
2022-12-15T10:06:18.313Z,18.48
2022-12-15T10:08:51.766Z,20.08
2022-12-15T10:11:39.694Z,17.13
2022-12-15T10:14:16.582Z,19.00
2022-12-15T10:16:55.451Z,18.58
2022-12-15T10:19:32.984Z,18.98
2022-12-15T10:22:03.472Z,19.15
2022-12-15T10:27:38.215Z,19.70
2022-12-15T10:30:11.021Z,17.25
2022-12-15T10:32:50.401Z,17.83
2022-12-15T10:35:28.871Z,19.35
2022-12-15T10:38:01.114Z,17.20
2022-12-15T10:40:50.854Z,18.48
2022-12-15T10:43:29.260Z,18.35
2022-12-15T10:46:04.761Z,19.85
2022-12-15T10:48:35.034Z,19.80
2022-12-15T10:51:31.108Z,16.65
2022-12-15T10:54:09.779Z,17.88
2022-12-15T10:56:50.560Z,20.00
2022-12-15T10:59:28.279Z,18.15
2022-12-15T11:01:58.743Z,19.42
2022-12-15T11:04:30.794Z,18.40
2022-12-15T11:07:04.254Z,17.65
2022-12-15T11:09:37.348Z,17.15
2022-12-15T11:12:31.952Z,19.42
2022-12-15T11:15:01.709Z,17.50
2022-12-15T11:17:42.058Z,21.55
2022-12-15T11:20:22.906Z,17.48
2022-12-15T11:22:58.075Z,18.85
2022-12-15T11:25:32.134Z,14.90
2022-12-15T11:28:03.476Z,15.70
2022-12-15T11:30:39.069Z,14.77
2022-12-15T11:33:11.410Z,13.07
2022-12-15T11:36:19.113Z,13.65
2022-12-15T11:39:11.200Z,12.77
2022-12-15T11:49:55.669Z,8.43
2022-12-15T11:56:51.453Z,6.82
2022-12-15T11:59:53.560Z,6.97
2022-12-15T12:02:38.294Z,8.93
2022-12-15T12:11:51.829Z,6.97
2022-12-15T12:14:32.348Z,6.88
2022-12-15T12:17:09.993Z,7.20
2022-12-15T12:19:45.520Z,6.18
2022-12-15T12:22:25.467Z,5.68
2022-12-15T12:24:58.227Z,6.53
2022-12-15T12:27:32.687Z,6.00
2022-12-15T12:30:05.624Z,6.30
2022-12-15T12:32:47.320Z,6.82
2022-12-15T12:35:31.936Z,6.30
2022-12-15T12:38:04.855Z,6.00
2022-12-15T12:40:49.793Z,5.95
2022-12-15T12:43:30.857Z,4.65
2022-12-15T12:46:03.513Z,4.07
2022-12-15T12:48:40.700Z,4.20
2022-12-15T12:51:19.252Z,3.67
2022-12-15T12:53:52.772Z,3.65
2022-12-15T12:56:37.052Z,3.03
2022-12-15T12:59:39.880Z,2.80
2022-12-15T13:02:45.545Z,2.95
2022-12-15T13:05:31.657Z,2.30
2022-12-15T13:08:20.118Z,3.03
2022-12-15T13:10:51.829Z,2.80
2022-12-15T13:13:51.048Z,2.33
2022-12-15T13:16:24.144Z,2.50
2022-12-15T13:19:02.214Z,2.92
2022-12-15T13:21:57.984Z,2.10
2022-12-15T13:24:34.848Z,2.15
2022-12-15T13:27:22.163Z,2.58
2022-12-15T13:30:02.385Z,2.45
2022-12-15T13:32:37.141Z,2.20
2022-12-15T13:35:24.444Z,2.38
2022-12-15T13:37:58.935Z,2.65
2022-12-15T13:40:36.071Z,2.35
2022-12-15T13:43:13.183Z,2.05
2022-12-15T13:45:54.337Z,1.75
2022-12-15T13:48:38.236Z,2.08
2022-12-15T13:51:20.296Z,2.70
2022-12-15T13:53:57.208Z,2.40
2022-12-15T13:56:36.352Z,2.67
2022-12-15T13:59:08.277Z,2.22
2022-12-15T14:01:38.108Z,2.08
2022-12-15T14:04:15.886Z,1.50
2022-12-15T14:06:50.833Z,2.20
2022-12-15T14:09:30.761Z,2.45
2022-12-15T14:12:01.217Z,1.63
2022-12-15T14:14:34.655Z,2.13
2022-12-15T14:17:05.443Z,2.00
2022-12-15T14:19:43.184Z,1.85
2022-12-15T14:22:28.551Z,2.17
2022-12-15T14:25:16.652Z,1.70
2022-12-15T14:27:50.699Z,1.98
2022-12-15T14:30:28.554Z,1.92
2022-12-15T14:33:01.241Z,1.85
2022-12-15T14:35:33.936Z,2.05
2022-12-15T14:38:08.140Z,1.98
2022-12-15T14:40:41.247Z,1.80
2022-12-15T14:43:19.167Z,2.58
2022-12-15T14:45:50.357Z,2.25
2022-12-15T14:48:41.527Z,1.90
2022-12-15T14:51:13.731Z,1.88
2022-12-15T14:53:47.779Z,2.15
2022-12-15T14:56:30.489Z,2.60
2022-12-15T14:59:06.426Z,2.30
2022-12-15T15:01:42.843Z,2.50
2022-12-15T15:04:26.823Z,1.88
2022-12-15T15:06:57.674Z,2.33
2022-12-15T15:09:28.751Z,2.08
2022-12-15T15:12:04.277Z,2.05
2022-12-15T15:14:35.746Z,2.05
2022-12-15T15:17:14.958Z,2.70
2022-12-15T15:19:50.345Z,2.20
2022-12-15T15:22:29.457Z,2.70
2022-12-15T15:42:56.639Z,2.40
2022-12-15T15:45:26.401Z,2.80
2022-12-15T15:47:58.976Z,1.98
2022-12-15T15:54:56.005Z,2.88
2022-12-15T16:01:25.761Z,2.65
2022-12-15T16:04:00.213Z,2.97
2022-12-15T16:07:20.207Z,2.78
2022-12-15T16:10:38.971Z,3.05
2022-12-15T16:24:59.620Z,4.43
2022-12-15T16:32:16.835Z,5.07
2022-12-15T16:34:46.889Z,5.50
2022-12-15T16:37:46.492Z,3.70
2022-12-15T16:40:18.824Z,5.63
2022-12-15T16:42:52.711Z,5.15
2022-12-15T16:45:27.612Z,6.97
2022-12-15T16:51:05.186Z,6.95
2022-12-15T16:53:36.721Z,8.30
2022-12-15T16:56:09.252Z,8.57
2022-12-15T16:58:39.179Z,10.93
2022-12-15T17:01:14.053Z,11.73
2022-12-15T17:03:45.504Z,11.55
2022-12-15T17:06:21.107Z,13.40
2022-12-15T17:08:58.940Z,15.80
2022-12-15T17:11:35.645Z,16.23
2022-12-15T17:14:06.739Z,16.25
2022-12-15T17:16:39.198Z,17.83
2022-12-15T17:19:09.143Z,17.02
2022-12-15T17:21:43.209Z,18.00
2022-12-15T17:24:16.773Z,17.10
2022-12-15T17:26:47.237Z,17.92
2022-12-15T17:29:20.018Z,18.38
2022-12-15T17:31:52.829Z,21.38
2022-12-15T17:34:30.715Z,19.83
2022-12-15T17:37:02.363Z,22.02
2022-12-15T17:39:32.963Z,21.13
2022-12-15T17:42:03.321Z,24.38
2022-12-15T17:44:36.720Z,24.70
2022-12-15T17:47:11.471Z,25.45
2022-12-15T17:49:41.226Z,33.60
2022-12-15T17:52:21.484Z,28.83
2022-12-15T17:54:51.250Z,25.40
2022-12-15T17:57:20.855Z,20.58
2022-12-15T17:59:50.747Z,22.35
2022-12-15T18:02:23.434Z,20.48
2022-12-15T18:04:55.357Z,22.53
2022-12-15T18:07:26.536Z,21.48
2022-12-15T18:14:08.221Z,22.27
2022-12-15T18:19:41.733Z,22.77
2022-12-15T18:22:14.591Z,19.45
2022-12-15T18:24:44.845Z,23.63
2022-12-15T18:27:22.628Z,25.27
2022-12-15T18:29:53.120Z,23.58
2022-12-15T18:32:24.179Z,23.90
2022-12-15T18:34:56.868Z,21.90
2022-12-15T18:37:28.329Z,21.65
2022-12-15T18:40:48.831Z,20.55
2022-12-15T18:43:20.147Z,21.45
2022-12-15T18:45:50.508Z,20.77
2022-12-15T18:48:23.006Z,19.35
2022-12-15T18:50:57.608Z,18.13
2022-12-15T18:53:30.720Z,19.35
2022-12-15T18:56:13.488Z,20.13
2022-12-15T18:58:46.595Z,21.45
2022-12-15T19:01:16.564Z,25.13
2022-12-15T19:03:46.835Z,24.38
2022-12-15T19:06:25.894Z,28.00
2022-12-15T19:08:59.206Z,20.52
2022-12-15T19:11:34.212Z,24.02
2022-12-15T19:14:25.424Z,24.33
2022-12-15T19:17:07.873Z,22.10
2022-12-15T19:19:49.997Z,19.88
2022-12-15T19:22:32.233Z,25.30
2022-12-15T19:25:06.057Z,24.63
2022-12-15T19:27:35.669Z,20.55
2022-12-15T19:30:08.170Z,20.05
2022-12-15T19:32:37.939Z,20.65
2022-12-15T19:35:08.675Z,22.63
2022-12-15T19:37:43.003Z,22.48
2022-12-15T19:40:20.645Z,21.65
2022-12-15T19:42:50.997Z,26.90
2022-12-15T19:45:22.817Z,24.13
2022-12-15T19:47:53.250Z,26.42
2022-12-15T19:50:25.398Z,30.30
2022-12-15T19:53:00.205Z,43.75
2022-12-15T19:55:32.922Z,40.85
2022-12-15T19:58:03.248Z,39.92
2022-12-15T20:00:33.051Z,34.72
2022-12-15T20:03:02.841Z,34.80
2022-12-15T20:05:32.911Z,39.97
2022-12-15T20:08:05.126Z,54.65
2022-12-15T20:10:35.173Z,45.17
2022-12-15T20:13:04.956Z,42.72
2022-12-15T20:15:34.972Z,46.13
2022-12-15T20:18:04.691Z,38.55
2022-12-15T20:20:36.526Z,36.97
2022-12-15T20:23:14.600Z,40.03
2022-12-15T20:25:46.490Z,38.83
2022-12-15T20:28:27.246Z,29.23
2022-12-15T20:30:58.444Z,26.40
2022-12-15T20:33:37.430Z,27.42
2022-12-15T20:36:08.770Z,26.48
2022-12-15T20:38:41.092Z,26.85
2022-12-15T20:41:12.510Z,23.88
2022-12-15T20:43:42.272Z,26.42
2022-12-15T20:46:28.696Z,22.23
2022-12-15T20:48:58.681Z,25.73
2022-12-15T20:51:29.901Z,25.83
2022-12-15T20:54:03.716Z,24.15
2022-12-15T20:56:36.410Z,22.60
2022-12-15T20:59:06.242Z,24.10
2022-12-15T21:01:39.266Z,25.23
2022-12-15T21:04:28.679Z,25.30
2022-12-15T21:06:59.298Z,21.95
2022-12-15T21:09:31.916Z,21.85
2022-12-15T21:12:05.864Z,21.73
2022-12-15T21:14:39.026Z,23.17
2022-12-15T21:17:08.713Z,22.02
2022-12-15T21:19:38.422Z,19.65
2022-12-15T21:22:08.192Z,21.08
2022-12-15T21:24:40.448Z,19.88
2022-12-15T21:27:13.075Z,24.52
2022-12-15T21:29:52.011Z,25.75
2022-12-15T21:32:25.321Z,24.92
2022-12-15T21:34:59.061Z,22.38
2022-12-15T21:37:33.023Z,23.23
2022-12-15T21:40:23.951Z,20.58
2022-12-15T21:43:01.562Z,17.20
2022-12-15T21:45:38.439Z,17.85
2022-12-15T21:48:21.232Z,17.88
2022-12-15T21:50:51.609Z,16.73
2022-12-15T21:53:24.143Z,18.98
2022-12-15T21:55:57.925Z,18.20
2022-12-15T21:59:24.547Z,20.95
2022-12-15T22:01:32.369Z,19.03
2022-12-15T22:03:38.073Z,21.38
2022-12-15T22:05:42.800Z,19.55
2022-12-15T22:07:47.825Z,16.83
2022-12-15T22:09:53.232Z,16.63
2022-12-15T22:11:58.938Z,19.48
2022-12-15T22:14:05.569Z,17.67
2022-12-15T22:16:13.811Z,18.90
2022-12-15T22:18:22.919Z,18.75
2022-12-15T22:20:28.023Z,17.42
2022-12-15T22:22:35.507Z,17.42
2022-12-15T22:24:40.339Z,14.98
2022-12-15T22:26:46.608Z,16.00
2022-12-15T22:28:51.518Z,17.08
2022-12-15T22:30:57.937Z,18.05
2022-12-15T22:33:05.541Z,19.75
2022-12-15T22:35:16.623Z,17.55
2022-12-15T22:37:21.306Z,14.98
2022-12-15T22:39:26.208Z,14.00
2022-12-15T22:41:30.938Z,13.10
2022-12-15T22:43:38.875Z,15.43
2022-12-15T22:45:43.820Z,12.85
2022-12-15T22:47:49.709Z,12.07
2022-12-15T22:49:57.824Z,11.43
2022-12-15T22:52:02.751Z,12.95
2022-12-15T23:00:48.587Z,9.82
2022-12-15T23:02:53.734Z,11.57
2022-12-15T23:05:01.097Z,11.35
2022-12-15T23:07:07.049Z,10.52
2022-12-15T23:09:12.009Z,10.73
2022-12-15T23:11:31.452Z,11.35
2022-12-15T23:13:36.479Z,11.45
2022-12-15T23:15:53.622Z,11.70
2022-12-15T23:17:59.957Z,10.70
2022-12-15T23:20:13.207Z,10.60
2022-12-15T23:22:18.833Z,11.65
2022-12-15T23:24:23.596Z,8.90
2022-12-15T23:26:29.365Z,9.05
2022-12-15T23:28:34.539Z,7.57
2022-12-15T23:30:39.390Z,7.35
2022-12-15T23:32:44.206Z,8.05
2022-12-15T23:34:49.837Z,7.03
2022-12-15T23:36:57.156Z,7.05
2022-12-15T23:39:01.744Z,6.15
2022-12-15T23:41:06.942Z,6.30
2022-12-15T23:43:12.714Z,5.90
2022-12-15T23:45:18.475Z,5.28
2022-12-15T23:47:23.324Z,5.60
2022-12-15T23:49:28.029Z,4.30
2022-12-15T23:51:32.768Z,4.75
2022-12-15T23:53:41.015Z,4.85
2022-12-15T23:55:45.732Z,4.55
2022-12-15T23:57:50.564Z,4.43
2022-12-15T23:59:56.271Z,3.72
